Time;durP1;ratioP1;P1;durP2;ratioP2;P2;SDS_P1;SDS_P2;PMS_P1;PMS_P2;Temp;Humidity;BMP_temperature;BMP_pressure;BME280_temperature;BME280_humidity;BME280_pressure;Samples;Min_cycle;Max_cycle;Signal;HPM_P1;HPM_P2
2021/12/05 00:19:14;;;;;;;17.65;4.07;;;4.50;99.90;;;;;;5009942;28;20365;-63
2021/12/05 00:21:42;;;;;;;14.85;3.90;;;4.70;99.90;;;;;;5006632;28;20453;-64
2021/12/05 00:24:14;;;;;;;11.48;3.75;;;4.70;99.90;;;;;;5015394;28;20029;-64
2021/12/05 00:26:46;;;;;;;14.90;3.93;;;4.80;99.90;;;;;;5010478;28;20030;-65
2021/12/05 00:29:21;;;;;;;16.40;3.83;;;4.70;99.90;;;;;;5014598;28;20280;-63
2021/12/05 00:35:01;;;;;;;20.23;4.32;;;4.90;99.90;;;;;;5009273;28;20045;-64
2021/12/05 00:51:14;;;;;;;16.33;4.25;;;4.70;99.90;;;;;;5014364;28;20042;-64
2021/12/05 00:54:22;;;;;;;16.00;4.07;;;4.80;99.90;;;;;;5018281;28;20037;-63
2021/12/05 01:02:15;;;;;;;15.13;4.00;;;4.90;99.90;;;;;;5014609;28;20115;-64
2021/12/05 01:04:53;;;;;;;17.67;3.47;;;4.90;99.90;;;;;;5013200;28;20041;-64
2021/12/05 01:07:36;;;;;;;18.90;4.22;;;4.90;99.90;;;;;;5014071;28;20044;-64
2021/12/05 01:11:02;;;;;;;18.88;3.53;;;4.80;99.90;;;;;;5013098;28;20101;-63
2021/12/05 01:13:26;;;;;;;14.05;2.83;;;4.80;99.90;;;;;;5014243;28;20057;-63
2021/12/05 01:15:49;;;;;;;15.35;3.58;;;4.80;99.90;;;;;;5014912;28;20042;-64
2021/12/05 01:18:17;;;;;;;17.70;3.70;;;4.80;99.90;;;;;;5013499;28;20084;-64
2021/12/05 01:20:47;;;;;;;18.17;3.40;;;4.80;99.90;;;;;;5014885;28;20816;-64
2021/12/05 01:26:08;;;;;;;22.42;3.55;;;4.80;99.90;;;;;;5009151;28;20190;-64
2021/12/05 01:29:00;;;;;;;11.23;2.85;;;4.80;99.90;;;;;;5018684;28;20045;-63
2021/12/05 01:34:13;;;;;;;14.48;2.30;;;4.80;99.90;;;;;;5021940;28;20193;-63
2021/12/05 02:11:03;;;;;;;17.17;2.85;;;4.50;99.90;;;;;;5009898;28;20056;-64
2021/12/05 02:42:42;;;;;;;11.75;3.17;;;4.50;99.90;;;;;;5016396;28;20377;-64
2021/12/05 02:45:09;;;;;;;15.15;2.85;;;4.50;99.90;;;;;;5015538;28;20099;-64
2021/12/05 02:47:35;;;;;;;10.45;2.83;;;4.50;99.90;;;;;;5017941;28;20194;-64
2021/12/05 02:50:05;;;;;;;11.65;2.70;;;4.50;99.90;;;;;;5014764;28;20033;-63
2021/12/05 02:52:36;;;;;;;17.25;2.75;;;4.50;99.90;;;;;;5017124;28;20033;-63
2021/12/05 02:55:25;;;;;;;13.20;2.97;;;4.50;99.90;;;;;;5015213;28;20367;-63
2021/12/05 02:57:55;;;;;;;10.68;2.70;;;4.50;99.90;;;;;;5035200;28;20034;-64
2021/12/05 03:01:06;;;;;;;15.43;2.78;;;4.50;99.90;;;;;;5013905;28;20439;-64
2021/12/05 03:03:32;;;;;;;14.68;3.08;;;4.40;99.90;;;;;;5031282;28;20041;-64
2021/12/05 03:06:07;;;;;;;15.00;3.42;;;4.50;99.90;;;;;;5014412;28;20489;-63
2021/12/05 03:08:33;;;;;;;17.00;3.03;;;4.60;99.90;;;;;;5017093;28;20045;-64
2021/12/05 03:10:59;;;;;;;15.98;2.60;;;4.50;99.90;;;;;;5017839;28;20068;-64
2021/12/05 03:13:26;;;;;;;18.52;3.20;;;4.60;99.90;;;;;;5015661;28;20102;-63
2021/12/05 03:15:52;;;;;;;16.70;2.78;;;4.50;99.90;;;;;;5010294;28;20094;-64
2021/12/05 03:18:18;;;;;;;15.10;3.00;;;4.40;99.90;;;;;;5018695;28;20052;-64
2021/12/05 03:20:44;;;;;;;13.70;3.03;;;4.40;99.90;;;;;;5009949;28;20042;-63
2021/12/05 03:23:10;;;;;;;10.98;2.95;;;4.40;99.90;;;;;;5010623;28;20041;-63
2021/12/05 03:25:35;;;;;;;12.25;3.08;;;4.50;99.90;;;;;;5010305;28;20120;-64
2021/12/05 03:28:03;;;;;;;15.73;2.72;;;4.50;99.90;;;;;;5017230;28;20038;-64
2021/12/05 03:30:28;;;;;;;11.73;2.90;;;4.30;99.90;;;;;;5020182;28;21857;-63
2021/12/05 03:32:55;;;;;;;11.95;2.60;;;4.30;99.90;;;;;;5012438;28;20064;-63
2021/12/05 03:35:25;;;;;;;15.23;2.85;;;4.30;99.90;;;;;;5012428;28;20129;-63
2021/12/05 03:37:52;;;;;;;16.98;3.08;;;4.20;99.90;;;;;;5012674;28;20054;-63
2021/12/05 03:40:21;;;;;;;13.98;2.85;;;4.20;99.90;;;;;;5012041;28;20248;-63
2021/12/05 03:42:47;;;;;;;17.17;3.20;;;4.20;99.90;;;;;;5007116;28;20385;-64
2021/12/05 03:45:19;;;;;;;12.55;2.75;;;4.10;99.90;;;;;;5015572;28;20034;-64
2021/12/05 03:47:45;;;;;;;10.77;2.65;;;4.10;99.90;;;;;;5015112;28;20080;-63
2021/12/05 03:50:11;;;;;;;10.88;2.90;;;4.10;99.90;;;;;;5015745;28;20392;-64
2021/12/05 03:52:38;;;;;;;12.27;3.22;;;4.10;99.90;;;;;;5018313;28;20045;-63
2021/12/05 03:55:05;;;;;;;11.57;2.65;;;4.20;99.90;;;;;;5013120;28;20092;-64
2021/12/05 03:57:31;;;;;;;14.27;3.03;;;4.10;99.90;;;;;;5016885;28;20537;-63
2021/12/05 03:59:57;;;;;;;10.40;2.30;;;4.00;99.90;;;;;;5012569;28;20068;-64
2021/12/05 04:02:23;;;;;;;12.48;2.95;;;4.10;99.90;;;;;;5013823;28;20436;-64
2021/12/05 04:04:50;;;;;;;14.55;3.28;;;4.10;99.90;;;;;;5014715;28;20399;-63
2021/12/05 04:07:16;;;;;;;11.93;2.90;;;4.10;99.90;;;;;;5012094;28;20122;-64
2021/12/05 04:09:43;;;;;;;12.85;2.65;;;4.10;99.90;;;;;;5018993;28;20046;-64
2021/12/05 04:12:09;;;;;;;13.75;2.92;;;4.10;99.90;;;;;;5008139;28;20030;-63
2021/12/05 04:14:39;;;;;;;11.55;2.78;;;4.10;99.90;;;;;;5012640;28;20045;-63
2021/12/05 04:17:08;;;;;;;13.40;2.63;;;4.10;99.90;;;;;;5012896;28;20117;-63
2021/12/05 04:19:34;;;;;;;12.95;2.78;;;4.10;99.90;;;;;;5018593;28;20480;-63
2021/12/05 04:22:01;;;;;;;10.00;2.58;;;4.00;99.90;;;;;;5008891;28;20034;-63
2021/12/05 04:24:27;;;;;;;15.00;2.88;;;4.20;99.90;;;;;;5013406;28;20655;-64
2021/12/05 04:26:53;;;;;;;12.27;2.88;;;4.10;99.90;;;;;;5013298;28;20099;-63
2021/12/05 04:29:19;;;;;;;14.13;2.72;;;4.00;99.90;;;;;;5019429;28;20060;-64
2021/12/05 04:31:45;;;;;;;12.65;2.63;;;4.00;99.90;;;;;;5012622;28;20690;-63
2021/12/05 04:34:14;;;;;;;11.90;2.08;;;4.00;99.90;;;;;;5019838;28;20065;-64
2021/12/05 04:36:41;;;;;;;9.98;2.28;;;4.00;99.90;;;;;;5013609;28;20129;-63
2021/12/05 04:39:07;;;;;;;10.40;2.60;;;4.00;99.90;;;;;;5008875;28;20034;-64
2021/12/05 04:41:34;;;;;;;8.10;2.10;;;4.00;99.90;;;;;;5008440;28;20088;-63
2021/12/05 04:44:01;;;;;;;9.10;2.30;;;4.00;99.90;;;;;;5014260;28;20141;-64
2021/12/05 04:46:27;;;;;;;12.35;2.55;;;4.00;99.90;;;;;;5008679;28;20061;-64
2021/12/05 04:48:55;;;;;;;12.35;2.38;;;4.00;99.90;;;;;;5009476;28;20057;-63
2021/12/05 04:51:24;;;;;;;10.35;2.45;;;4.00;99.90;;;;;;5013403;28;20117;-64
2021/12/05 04:53:49;;;;;;;9.85;2.20;;;4.00;99.90;;;;;;5013368;28;20053;-63
2021/12/05 04:56:16;;;;;;;8.18;2.00;;;4.00;99.90;;;;;;5005755;28;20085;-63
2021/12/05 04:58:42;;;;;;;11.75;2.35;;;4.00;99.90;;;;;;5008364;28;20453;-64
2021/12/05 05:01:08;;;;;;;9.27;2.08;;;4.00;99.90;;;;;;5007888;28;20113;-64
2021/12/05 05:03:34;;;;;;;10.68;1.90;;;4.00;99.90;;;;;;5010623;28;20038;-63
2021/12/05 05:06:10;;;;;;;13.98;2.30;;;3.80;99.90;;;;;;5018089;28;20037;-63
2021/12/05 05:08:35;;;;;;;11.80;2.10;;;3.90;99.90;;;;;;5017603;28;20041;-64
2021/12/05 05:11:05;;;;;;;8.60;1.65;;;3.90;99.90;;;;;;5013753;28;20174;-63
2021/12/05 05:13:32;;;;;;;8.27;2.00;;;3.90;99.90;;;;;;5013534;28;20465;-63
2021/12/05 05:15:58;;;;;;;9.13;2.42;;;3.90;99.90;;;;;;5017137;28;20046;-63
2021/12/05 05:18:29;;;;;;;13.82;2.45;;;3.90;99.90;;;;;;5020905;28;20433;-63
2021/12/05 05:21:19;;;;;;;10.68;2.20;;;4.00;99.90;;;;;;5007215;28;20033;-63
2021/12/05 05:24:04;;;;;;;8.10;2.28;;;3.90;99.90;;;;;;4986863;28;20046;-63
2021/12/05 05:29:31;;;;;;;7.85;2.20;;;3.90;99.90;;;;;;5010198;28;20355;-64
2021/12/05 05:50:38;;;;;;;11.80;2.75;;;3.90;99.90;;;;;;5017361;28;20529;-63
2021/12/05 05:53:04;;;;;;;5.85;2.35;;;3.90;99.90;;;;;;5012283;28;20042;-63
2021/12/05 05:55:30;;;;;;;9.07;2.80;;;4.00;99.90;;;;;;5019410;28;20061;-63
2021/12/05 06:00:36;;;;;;;10.63;2.83;;;4.10;99.90;;;;;;5020131;28;20030;-63
2021/12/05 06:03:23;;;;;;;7.65;2.70;;;4.10;99.90;;;;;;5012253;28;20037;-64
2021/12/05 06:06:09;;;;;;;9.00;2.70;;;4.30;99.90;;;;;;5018138;28;20051;-64
2021/12/05 06:08:36;;;;;;;9.07;2.97;;;4.20;99.90;;;;;;5016664;28;20053;-63
2021/12/05 06:11:09;;;;;;;9.93;2.97;;;4.30;99.90;;;;;;5017336;28;20060;-63
2021/12/05 06:13:37;;;;;;;11.93;3.03;;;4.40;99.90;;;;;;5019051;28;20073;-64
2021/12/05 06:16:04;;;;;;;11.93;2.50;;;4.50;99.90;;;;;;5011490;28;20497;-64
2021/12/05 06:18:30;;;;;;;11.52;2.70;;;4.50;99.90;;;;;;5015777;28;20045;-63
2021/12/05 06:20:56;;;;;;;7.03;2.40;;;4.50;99.90;;;;;;5012683;28;20038;-64
2021/12/05 06:23:22;;;;;;;8.98;2.35;;;4.50;99.90;;;;;;5011813;28;20092;-63
2021/12/05 06:25:50;;;;;;;7.85;2.45;;;4.40;99.90;;;;;;5017875;28;20124;-64
2021/12/05 06:28:22;;;;;;;8.55;2.20;;;4.40;99.90;;;;;;5014025;28;20034;-63
2021/12/05 06:31:00;;;;;;;9.10;2.50;;;4.50;99.90;;;;;;5009872;28;20038;-63
2021/12/05 06:47:13;;;;;;;7.82;2.10;;;4.60;99.90;;;;;;5019536;28;20053;-63
2021/12/05 06:49:44;;;;;;;6.25;1.75;;;4.70;99.90;;;;;;5012524;28;20049;-64
2021/12/05 06:52:10;;;;;;;10.38;1.95;;;4.70;99.90;;;;;;5015925;28;20088;-63
2021/12/05 06:54:38;;;;;;;9.13;2.00;;;4.70;99.90;;;;;;5011855;28;20042;-63
2021/12/05 06:57:05;;;;;;;8.88;1.67;;;4.60;99.90;;;;;;5010436;28;20034;-63
2021/12/05 06:59:31;;;;;;;4.22;1.90;;;4.70;99.90;;;;;;5016441;28;20034;-64
2021/12/05 07:01:57;;;;;;;4.28;1.27;;;4.80;99.90;;;;;;5012440;28;20121;-64
2021/12/05 07:04:48;;;;;;;6.50;1.92;;;4.70;99.90;;;;;;5014887;28;20120;-63
2021/12/05 07:07:23;;;;;;;6.43;1.88;;;4.80;99.90;;;;;;5017677;28;20132;-64
2021/12/05 07:09:50;;;;;;;6.53;1.55;;;4.70;99.90;;;;;;5011183;28;20037;-63
2021/12/05 07:12:34;;;;;;;8.82;1.80;;;4.80;99.90;;;;;;5008277;28;20072;-63
2021/12/05 07:15:08;;;;;;;5.07;1.60;;;4.80;99.90;;;;;;5015876;28;20510;-63
2021/12/05 07:22:52;;;;;;;6.63;1.88;;;4.70;99.90;;;;;;5012721;28;20394;-63
2021/12/05 07:26:28;;;;;;;6.03;1.80;;;4.80;99.90;;;;;;5016296;28;20103;-64
2021/12/05 07:42:03;;;;;;;8.75;2.45;;;4.80;99.90;;;;;;5016747;28;20048;-63
2021/12/05 07:44:29;;;;;;;7.85;1.92;;;4.90;99.90;;;;;;5016611;28;20040;-63
2021/12/05 07:46:56;;;;;;;5.10;1.63;;;4.90;99.90;;;;;;5015419;28;20034;-63
2021/12/05 07:49:21;;;;;;;10.75;2.28;;;4.80;99.90;;;;;;5017457;28;20087;-63
2021/12/05 07:51:49;;;;;;;4.57;1.38;;;4.80;99.90;;;;;;5011270;28;20117;-64
2021/12/05 07:54:35;;;;;;;4.38;1.63;;;4.80;99.90;;;;;;5014051;28;20057;-63
2021/12/05 08:16:04;;;;;;;5.68;1.70;;;4.60;99.90;;;;;;5013129;28;20041;-63
2021/12/05 08:18:30;;;;;;;7.57;2.20;;;4.80;99.90;;;;;;5014335;28;20043;-63
2021/12/05 08:20:57;;;;;;;7.10;1.67;;;4.90;99.90;;;;;;5010112;28;20137;-64
2021/12/05 08:23:23;;;;;;;6.07;2.10;;;4.90;99.90;;;;;;5011851;28;20045;-63
2021/12/05 08:26:06;;;;;;;5.50;1.75;;;4.90;99.90;;;;;;5012066;28;20080;-63
2021/12/05 08:42:25;;;;;;;6.22;2.17;;;5.00;99.90;;;;;;5015159;28;20059;-64
2021/12/05 09:26:08;;;;;;;5.63;2.30;;;5.00;99.90;;;;;;5010542;28;20060;-65
2021/12/05 09:38:29;;;;;;;4.60;2.22;;;5.20;99.90;;;;;;5007988;28;20122;-66
2021/12/05 10:15:09;;;;;;;8.55;2.63;;;5.60;99.90;;;;;;5015361;28;20264;-66
2021/12/05 10:18:03;;;;;;;9.93;3.17;;;5.50;99.90;;;;;;5011668;28;20053;-66
2021/12/05 10:26:17;;;;;;;7.63;3.05;;;5.70;99.90;;;;;;5018282;28;20045;-67
2021/12/05 10:26:42;;;;;;;7.22;2.97;;;5.80;99.90;;;;;;5010737;28;20270;-66
2021/12/05 10:40:37;;;;;;;7.72;3.35;;;6.00;99.90;;;;;;5007779;28;20634;-66
2021/12/05 10:43:13;;;;;;;8.32;4.18;;;6.10;99.90;;;;;;5011963;28;20383;-66
2021/12/05 10:45:45;;;;;;;10.23;4.57;;;6.10;99.90;;;;;;5015617;28;20117;-66
2021/12/05 10:48:20;;;;;;;7.88;3.20;;;6.10;99.90;;;;;;5014882;28;20413;-66
2021/12/05 10:50:50;;;;;;;6.80;3.28;;;6.10;99.90;;;;;;5013707;28;20378;-66
2021/12/05 10:53:30;;;;;;;7.50;2.95;;;6.10;99.90;;;;;;5015085;28;20599;-66
2021/12/05 10:56:04;;;;;;;7.80;3.35;;;6.10;99.90;;;;;;5014319;28;20037;-66
2021/12/05 10:58:38;;;;;;;7.13;3.50;;;6.20;99.90;;;;;;5007356;28;20041;-66
2021/12/05 11:01:16;;;;;;;6.85;3.05;;;6.20;99.90;;;;;;5016252;28;20034;-66
2021/12/05 11:03:42;;;;;;;6.47;3.25;;;6.40;99.90;;;;;;5019629;28;20045;-66
2021/12/05 11:06:19;;;;;;;6.22;3.28;;;6.30;99.90;;;;;;5014461;28;20033;-65
2021/12/05 11:08:44;;;;;;;5.57;2.95;;;6.40;99.90;;;;;;5016293;28;20481;-66
2021/12/05 11:11:15;;;;;;;7.65;3.20;;;6.40;99.90;;;;;;5016567;28;20134;-65
2021/12/05 11:13:46;;;;;;;5.35;2.95;;;6.50;99.90;;;;;;5006008;28;20095;-66
2021/12/05 11:16:48;;;;;;;5.43;2.97;;;6.50;99.90;;;;;;5010605;28;20358;-66
2021/12/05 11:19:16;;;;;;;7.40;3.28;;;6.50;99.90;;;;;;5012546;28;20420;-66
2021/12/05 11:21:47;;;;;;;8.70;3.60;;;6.50;99.90;;;;;;5012393;28;20048;-66
2021/12/05 11:24:20;;;;;;;7.00;3.33;;;6.70;99.90;;;;;;5014912;28;20132;-66
2021/12/05 11:27:09;;;;;;;4.22;2.42;;;6.70;99.90;;;;;;5006294;28;20156;-66
2021/12/05 11:29:44;;;;;;;5.18;2.35;;;6.40;99.90;;;;;;5000740;28;20059;-66
2021/12/05 11:32:14;;;;;;;7.18;2.33;;;6.30;99.90;;;;;;5006744;28;20064;-66
2021/12/05 11:34:40;;;;;;;6.40;3.05;;;6.40;99.90;;;;;;5007102;28;20557;-66
2021/12/05 11:37:05;;;;;;;6.82;2.28;;;6.40;99.90;;;;;;5007835;28;20635;-65
2021/12/05 11:39:31;;;;;;;11.20;2.53;;;6.30;99.90;;;;;;5006547;28;20049;-65
2021/12/05 11:41:57;;;;;;;5.40;2.53;;;6.50;99.90;;;;;;5014198;28;20025;-65
2021/12/05 11:44:24;;;;;;;8.95;3.50;;;6.40;99.90;;;;;;5007449;28;20042;-65
2021/12/05 11:46:51;;;;;;;7.15;2.83;;;6.50;99.90;;;;;;5014974;28;20044;-65
2021/12/05 11:49:26;;;;;;;9.90;4.88;;;6.70;99.90;;;;;;5007141;28;20462;-65
2021/12/05 11:51:56;;;;;;;4.97;2.15;;;6.80;99.90;;;;;;5013153;28;20065;-65
2021/12/05 11:54:36;;;;;;;7.43;2.60;;;6.80;99.90;;;;;;5011515;28;20466;-65
2021/12/05 11:57:07;;;;;;;6.95;2.92;;;6.80;99.90;;;;;;5009671;28;20037;-66
2021/12/05 11:59:47;;;;;;;7.03;2.28;;;6.70;99.90;;;;;;5014512;28;20037;-66
2021/12/05 12:02:25;;;;;;;10.68;5.43;;;6.60;99.90;;;;;;5011858;28;21041;-65
2021/12/05 12:05:04;;;;;;;4.90;2.47;;;6.60;99.90;;;;;;5007160;28;20139;-66
2021/12/05 12:07:35;;;;;;;4.78;2.80;;;6.70;99.90;;;;;;5007904;28;20048;-66
2021/12/05 12:10:14;;;;;;;8.50;2.05;;;6.80;99.90;;;;;;5010906;28;20079;-66
2021/12/05 12:12:45;;;;;;;4.82;2.28;;;6.90;99.90;;;;;;5011822;28;20038;-66
2021/12/05 12:15:14;;;;;;;6.55;2.47;;;6.90;99.90;;;;;;5007379;28;20038;-66
2021/12/05 12:17:39;;;;;;;6.90;2.80;;;6.90;99.90;;;;;;5012148;28;20057;-64
2021/12/05 12:20:11;;;;;;;6.00;2.70;;;6.80;99.90;;;;;;5010630;28;20054;-65
2021/12/05 12:22:38;;;;;;;5.68;2.63;;;6.90;99.90;;;;;;5016514;28;20333;-65
2021/12/05 12:25:09;;;;;;;3.55;2.17;;;7.10;99.90;;;;;;5011621;28;20053;-65
2021/12/05 12:27:34;;;;;;;7.95;3.58;;;7.00;99.90;;;;;;5011627;28;20431;-66
2021/12/05 12:30:03;;;;;;;6.03;2.80;;;7.10;99.90;;;;;;5008815;28;20113;-65
2021/12/05 12:32:38;;;;;;;13.20;5.03;;;7.10;99.90;;;;;;5007168;28;20034;-66
2021/12/05 12:35:14;;;;;;;6.78;3.70;;;7.00;99.90;;;;;;5002300;28;20041;-65
2021/12/05 12:38:03;;;;;;;5.75;2.92;;;7.10;99.90;;;;;;5006380;28;20053;-65
2021/12/05 12:40:49;;;;;;;9.68;4.80;;;7.10;99.90;;;;;;5008417;28;21043;-66
2021/12/05 12:43:46;;;;;;;31.80;16.92;;;7.00;99.90;;;;;;5007783;28;20049;-65
2021/12/05 12:46:36;;;;;;;4.90;2.38;;;7.20;99.90;;;;;;5005929;28;20025;-66
2021/12/05 12:49:17;;;;;;;4.53;2.30;;;7.20;99.90;;;;;;5004203;28;20038;-66
2021/12/05 12:51:47;;;;;;;4.65;2.25;;;7.10;99.90;;;;;;5012057;28;20029;-66
2021/12/05 12:54:25;;;;;;;4.93;1.80;;;7.20;99.90;;;;;;5010768;28;20120;-66
2021/12/05 12:57:11;;;;;;;5.45;2.40;;;7.20;99.90;;;;;;5006153;28;20043;-66
2021/12/05 12:59:55;;;;;;;4.10;2.08;;;7.30;99.90;;;;;;5010906;28;20394;-66
2021/12/05 13:02:38;;;;;;;4.20;2.35;;;7.20;99.90;;;;;;5019176;28;20036;-66
2021/12/05 13:05:22;;;;;;;3.95;1.80;;;7.30;99.90;;;;;;5015713;28;20034;-66
2021/12/05 13:10:43;;;;;;;6.30;2.60;;;7.20;99.90;;;;;;5006139;28;20045;-66
2021/12/05 13:13:26;;;;;;;6.20;1.80;;;7.10;99.90;;;;;;5006751;28;20065;-66
2021/12/05 13:15:59;;;;;;;3.87;2.00;;;7.10;99.90;;;;;;5016523;28;20045;-67
2021/12/05 13:18:36;;;;;;;8.15;1.75;;;7.10;99.90;;;;;;5010090;28;20080;-67
2021/12/05 13:21:09;;;;;;;4.03;1.92;;;7.10;99.90;;;;;;5020742;28;20042;-67
2021/12/05 13:23:51;;;;;;;3.25;2.20;;;7.20;99.90;;;;;;5005617;28;20057;-67
2021/12/05 13:26:35;;;;;;;4.97;2.20;;;7.20;99.90;;;;;;5008736;28;20524;-67
2021/12/05 13:29:13;;;;;;;;;;;7.20;99.90;;;;;;5014766;28;20037;-67
2021/12/05 13:31:41;;;;;;;6.25;1.80;;;7.10;99.90;;;;;;5015711;28;19975;-67
2021/12/05 13:34:32;;;;;;;3.55;2.28;;;7.10;99.90;;;;;;5017047;28;20044;-65
2021/12/05 13:36:57;;;;;;;4.13;2.58;;;7.00;99.90;;;;;;5016636;28;20041;-65
2021/12/05 13:39:29;;;;;;;5.10;2.00;;;7.10;99.90;;;;;;5010664;28;20041;-65
2021/12/05 13:42:25;;;;;;;6.85;3.60;;;7.10;99.90;;;;;;5013183;28;20049;-65
2021/12/05 13:45:04;;;;;;;5.07;3.03;;;7.20;99.90;;;;;;5004363;28;20503;-65
2021/12/05 13:47:35;;;;;;;21.92;13.48;;;7.20;99.90;;;;;;5010821;28;20438;-66
2021/12/05 13:50:19;;;;;;;13.20;10.95;;;7.10;99.90;;;;;;5013600;28;20021;-66
2021/12/05 13:52:45;;;;;;;8.20;6.10;;;7.20;99.90;;;;;;5011168;28;20046;-66
2021/12/05 13:55:31;;;;;;;6.55;4.28;;;7.00;99.90;;;;;;5014402;28;20557;-65
2021/12/05 13:58:25;;;;;;;5.70;3.60;;;7.00;99.90;;;;;;5015573;28;20068;-65
2021/12/05 14:00:58;;;;;;;7.88;4.18;;;7.00;99.90;;;;;;5020452;28;20491;-65
2021/12/05 14:03:55;;;;;;;10.27;6.07;;;7.10;99.90;;;;;;5010311;28;20129;-65
2021/12/05 14:06:54;;;;;;;8.98;5.90;;;6.90;99.90;;;;;;5007410;28;20513;-65
2021/12/05 14:09:37;;;;;;;6.28;5.05;;;7.00;99.90;;;;;;5012953;28;20038;-65
2021/12/05 14:12:27;;;;;;;5.18;3.38;;;7.10;99.90;;;;;;5016258;28;20038;-65
2021/12/05 14:15:06;;;;;;;7.03;3.88;;;7.00;99.90;;;;;;5009221;28;20048;-66
2021/12/05 14:17:33;;;;;;;6.55;3.83;;;7.10;99.90;;;;;;5010664;28;20042;-66
2021/12/05 14:20:08;;;;;;;5.55;3.72;;;6.90;99.90;;;;;;5008687;28;20049;-66
2021/12/05 14:22:36;;;;;;;5.75;2.25;;;6.90;99.90;;;;;;5013385;28;20037;-66
2021/12/05 14:25:07;;;;;;;4.78;2.70;;;6.90;99.90;;;;;;5017720;28;20160;-66
2021/12/05 14:27:37;;;;;;;8.13;4.40;;;6.90;99.90;;;;;;5009795;28;20021;-65
2021/12/05 14:30:10;;;;;;;6.55;3.25;;;7.00;99.90;;;;;;5011065;28;20030;-65
2021/12/05 14:32:40;;;;;;;7.47;4.55;;;6.90;99.90;;;;;;5012071;28;20037;-65
2021/12/05 14:35:13;;;;;;;6.22;3.40;;;7.00;99.90;;;;;;5015149;28;20040;-66
2021/12/05 14:37:40;;;;;;;13.93;6.05;;;6.90;99.90;;;;;;5010103;28;20378;-66
2021/12/05 14:40:13;;;;;;;16.58;8.45;;;6.90;99.90;;;;;;5016253;28;20037;-65
2021/12/05 14:42:41;;;;;;;20.03;9.23;;;6.90;99.90;;;;;;5015891;28;20123;-66
2021/12/05 14:45:11;;;;;;;102.43;60.42;;;6.80;99.90;;;;;;5010348;28;20042;-66
2021/12/05 14:47:39;;;;;;;19.83;9.75;;;6.90;99.90;;;;;;5012266;28;20092;-66
2021/12/05 14:50:10;;;;;;;17.25;9.00;;;6.90;99.90;;;;;;5017766;28;20034;-67
2021/12/05 14:52:38;;;;;;;19.50;8.95;;;6.70;99.90;;;;;;5015156;28;20060;-66
2021/12/05 14:55:07;;;;;;;9.93;5.22;;;6.80;99.90;;;;;;5018409;28;20044;-65
2021/12/05 14:57:39;;;;;;;10.98;4.57;;;6.80;99.90;;;;;;5013039;28;20056;-66
2021/12/05 15:00:13;;;;;;;4.97;2.80;;;6.80;99.90;;;;;;5036473;28;20110;-66
2021/12/05 15:02:39;;;;;;;5.07;2.70;;;6.80;99.90;;;;;;5017163;28;20043;-66
2021/12/05 15:05:17;;;;;;;5.50;3.20;;;6.80;99.90;;;;;;5012863;28;20026;-66
2021/12/05 15:07:44;;;;;;;7.47;3.67;;;6.80;99.90;;;;;;5013947;28;20136;-66
2021/12/05 15:10:17;;;;;;;9.20;4.20;;;6.80;99.90;;;;;;5017540;28;20163;-66
2021/12/05 15:12:43;;;;;;;;;;;6.70;99.90;;;;;;5017356;28;20198;-66
2021/12/05 15:15:11;;;;;;;5.90;3.30;;;6.70;99.90;;;;;;5010976;28;19918;-66
2021/12/05 15:17:40;;;;;;;5.15;3.33;;;6.80;99.90;;;;;;5010341;28;20117;-66
2021/12/05 15:20:07;;;;;;;8.52;3.95;;;6.50;99.90;;;;;;5009858;28;20042;-66
2021/12/05 15:22:34;;;;;;;11.20;4.10;;;6.50;99.90;;;;;;5009513;28;20034;-66
2021/12/05 15:25:20;;;;;;;6.70;3.38;;;6.40;99.90;;;;;;5011888;28;20049;-66
2021/12/05 15:27:48;;;;;;;10.23;4.45;;;6.20;99.90;;;;;;5012152;28;20029;-66
2021/12/05 15:30:18;;;;;;;7.72;4.65;;;6.40;99.90;;;;;;5006083;28;20033;-66
2021/12/05 15:32:49;;;;;;;9.13;4.38;;;6.40;99.90;;;;;;5014977;28;20120;-66
2021/12/05 15:35:17;;;;;;;7.25;4.63;;;6.30;99.90;;;;;;5008007;28;20482;-66
2021/12/05 15:37:58;;;;;;;8.50;4.82;;;6.10;99.90;;;;;;5007196;28;20052;-66
2021/12/05 15:40:26;;;;;;;6.95;4.55;;;6.00;99.90;;;;;;5006789;28;20152;-66
2021/12/05 15:43:01;;;;;;;7.50;4.75;;;6.00;99.90;;;;;;5007107;28;20026;-66
2021/12/05 15:45:27;;;;;;;7.38;4.65;;;5.90;99.90;;;;;;5006729;28;20076;-66
2021/12/05 15:47:54;;;;;;;12.10;6.00;;;6.10;99.90;;;;;;5018710;28;20080;-66
2021/12/05 15:50:22;;;;;;;9.10;5.97;;;6.20;99.90;;;;;;5004647;28;20058;-66
2021/12/05 15:52:58;;;;;;;23.48;20.92;;;5.90;99.90;;;;;;5011298;28;20030;-66
2021/12/05 15:55:29;;;;;;;10.73;7.53;;;5.70;99.90;;;;;;5011211;28;20136;-65
2021/12/05 15:58:23;;;;;;;8.10;6.00;;;5.70;99.90;;;;;;5011603;28;20489;-67
2021/12/05 16:01:06;;;;;;;21.20;12.02;;;5.60;99.90;;;;;;5007700;28;20040;-66
2021/12/05 16:04:09;;;;;;;43.23;24.27;;;5.70;99.90;;;;;;5014524;28;20048;-65
2021/12/05 16:06:40;;;;;;;28.05;16.63;;;5.80;99.90;;;;;;5004159;28;20120;-64
2021/12/05 16:09:12;;;;;;;17.60;11.45;;;5.70;99.90;;;;;;5012883;28;20045;-63
2021/12/05 16:11:37;;;;;;;15.18;9.20;;;5.60;99.90;;;;;;5010602;28;20121;-63
2021/12/05 16:14:03;;;;;;;15.90;9.75;;;5.60;99.90;;;;;;5004031;28;20116;-64
2021/12/05 16:16:29;;;;;;;15.27;10.68;;;5.70;99.90;;;;;;5011475;28;20120;-64
2021/12/05 16:18:58;;;;;;;13.32;9.23;;;5.70;99.90;;;;;;5014150;28;20100;-62
2021/12/05 16:21:28;;;;;;;19.83;14.15;;;5.70;99.90;;;;;;5010959;28;20041;-63
2021/12/05 16:24:08;;;;;;;13.45;9.65;;;5.80;99.90;;;;;;5011887;28;20048;-64
2021/12/05 16:26:35;;;;;;;12.60;8.70;;;5.60;99.90;;;;;;5014078;28;20125;-64
2021/12/05 16:29:13;;;;;;;15.75;9.85;;;5.70;99.90;;;;;;5007273;28;20150;-64
2021/12/05 16:31:52;;;;;;;19.65;13.60;;;5.80;99.90;;;;;;5005901;28;20034;-64
2021/12/05 16:34:23;;;;;;;19.33;14.02;;;5.90;99.90;;;;;;5009131;28;20033;-64
2021/12/05 16:37:02;;;;;;;9.75;6.78;;;5.90;99.90;;;;;;5011826;28;20111;-64
2021/12/05 16:39:29;;;;;;;11.32;6.88;;;5.70;99.90;;;;;;5007874;28;20042;-64
2021/12/05 16:41:58;;;;;;;12.05;7.35;;;5.60;99.90;;;;;;5012636;28;20496;-64
2021/12/05 16:44:29;;;;;;;12.55;7.82;;;5.50;99.90;;;;;;5009870;28;20115;-64
2021/12/05 16:47:01;;;;;;;12.15;7.70;;;5.50;99.90;;;;;;5008996;28;20184;-64
2021/12/05 16:49:34;;;;;;;12.45;7.55;;;5.40;99.90;;;;;;5009392;28;20415;-64
2021/12/05 16:52:04;;;;;;;13.35;7.60;;;5.50;99.90;;;;;;5015206;28;20492;-64
2021/12/05 16:54:35;;;;;;;12.02;7.57;;;5.50;99.90;;;;;;5009740;28;20037;-64
2021/12/05 16:57:23;;;;;;;13.32;6.68;;;5.50;99.90;;;;;;5008372;28;20041;-64
2021/12/05 16:59:52;;;;;;;14.30;6.57;;;5.50;99.90;;;;;;5013723;28;20068;-64
2021/12/05 17:02:25;;;;;;;12.10;6.78;;;5.40;99.90;;;;;;5018655;28;20073;-64
2021/12/05 17:05:06;;;;;;;10.68;6.78;;;5.40;99.90;;;;;;5015743;28;20469;-64
2021/12/05 17:07:55;;;;;;;12.35;6.95;;;5.60;99.90;;;;;;5007670;28;20128;-64
2021/12/05 17:10:20;;;;;;;8.73;6.55;;;5.60;99.90;;;;;;5016222;28;20026;-64
2021/12/05 17:12:51;;;;;;;10.93;6.80;;;5.60;99.90;;;;;;5020924;28;20045;-64
2021/12/05 17:15:26;;;;;;;11.30;8.13;;;5.60;99.90;;;;;;5011128;28;20033;-64
2021/12/05 17:18:01;;;;;;;15.13;12.20;;;5.70;99.90;;;;;;5017023;28;20034;-64
2021/12/05 17:20:30;;;;;;;15.85;7.63;;;5.70;99.90;;;;;;5008057;28;20463;-64
2021/12/05 17:23:07;;;;;;;14.95;7.55;;;5.70;99.90;;;;;;5009405;28;20030;-64
2021/12/05 17:25:40;;;;;;;12.38;8.10;;;5.70;99.90;;;;;;5006691;28;20037;-64
2021/12/05 17:28:13;;;;;;;14.80;9.57;;;5.60;99.90;;;;;;5016434;28;20049;-64
2021/12/05 17:30:54;;;;;;;15.07;8.88;;;5.60;99.90;;;;;;5010719;28;20486;-64
2021/12/05 17:33:41;;;;;;;26.17;15.68;;;5.80;99.90;;;;;;5013162;28;20050;-63
2021/12/05 17:36:18;;;;;;;21.00;14.77;;;5.90;99.90;;;;;;5007967;28;20069;-63
2021/12/05 17:38:45;;;;;;;24.02;15.70;;;5.70;99.90;;;;;;5007766;28;20145;-63
2021/12/05 17:41:14;;;;;;;23.58;17.25;;;5.90;99.90;;;;;;5012249;28;20041;-64
2021/12/05 17:43:40;;;;;;;22.25;14.60;;;5.70;99.90;;;;;;5019302;28;20060;-64
2021/12/05 17:46:06;;;;;;;35.95;20.50;;;5.60;99.90;;;;;;5014674;28;20041;-64
2021/12/05 17:48:33;;;;;;;27.00;16.73;;;5.40;99.90;;;;;;5014361;28;20041;-64
2021/12/05 17:51:03;;;;;;;15.60;12.43;;;5.50;99.90;;;;;;5006741;28;20681;-64
2021/12/05 17:53:31;;;;;;;22.48;13.73;;;5.40;99.90;;;;;;5012940;28;20042;-64
2021/12/05 17:56:02;;;;;;;19.73;12.40;;;5.50;99.90;;;;;;5014414;28;20025;-64
2021/12/05 17:59:04;;;;;;;25.58;18.08;;;5.60;99.90;;;;;;5010100;28;20041;-64
2021/12/05 18:04:10;;;;;;;37.72;23.02;;;5.40;99.90;;;;;;5009651;28;20068;-64
2021/12/05 18:06:36;;;;;;;37.88;23.15;;;5.50;99.90;;;;;;5017406;28;20049;-64
2021/12/05 18:09:04;;;;;;;38.20;23.55;;;5.50;99.90;;;;;;5011846;28;20801;-64
2021/12/05 18:11:32;;;;;;;33.35;21.73;;;5.50;99.90;;;;;;5009449;28;20037;-64
2021/12/05 18:13:58;;;;;;;31.65;20.05;;;5.50;99.90;;;;;;5014131;28;20416;-63
2021/12/05 18:16:27;;;;;;;25.50;17.05;;;5.60;99.90;;;;;;5018329;28;20041;-63
2021/12/05 18:19:03;;;;;;;18.65;13.10;;;5.50;99.90;;;;;;5017478;28;20034;-64
2021/12/05 18:21:30;;;;;;;18.75;12.80;;;5.40;99.90;;;;;;5013369;28;20681;-63
2021/12/05 18:23:56;;;;;;;19.92;13.52;;;5.50;99.90;;;;;;5011371;28;20124;-65